Decoded Metar for KSAN (SAN DIEGO in CA, USA) (IATA:SAN) | Meteo·Mobile Aviation Weather
aviador You're here:

KSAN Decoded Metar

SAN DIEGO in CA, USA
Report Time2018-08-21 11:51:00
UTC Time2018-08-21 12:11:03
Flight Rules mvfr MVFR
Wind240° at 04 kt
W.Decomp.*RWY 27: 2.9 kt HW 2.8 kt LCW
W.Rank240° ranks 15
Current wind is below 240° avg. (6.2)
Visibility9999 m
Phenomena:N/A
Clouds:Overcast 016 Hf
Expected CloudBase > 2,000 ft AGL from Temp-Dew spread
Ceiling1,600 ft
Temp23°C (ISA +8)
Dew Point18°C (74% RH)
QNH1014 hPa
Density Alt1,217 ft
Elevation39 ft
Report Wrong Elevation
Raw Report
METAR KSAN 211151Z 24004KT 8SM OVC016 23/18 A2993 RMK AO2 SLP133 T02280178
10228 20228 56008=

Extra information for KSAN:More info

Metar Taf Metar & Taf Last 4 Metars F.Rules Stats Wind Profile Meteogram Temp Stats Airport Information Weather charts Add Link Nearby VenuesMetar ALERT Operation Metar Decoded Social comments

AIRNAV info for KSAN